Time;durP1;ratioP1;P1;durP2;ratioP2;P2;SDS_P1;SDS_P2;PMS_P1;PMS_P2;Temp;Humidity;BMP_temperature;BMP_pressure;BME280_temperature;BME280_humidity;BME280_pressure;Samples;Min_cycle;Max_cycle;Signal;HPM_P1;HPM_P2
2022/10/20 00:02:31;;;;;;;14.30;11.30;;;;;;;4.12;75.81;101287.62;126894;1296;107266;-80
2022/10/20 00:05:37;;;;;;;10.90;6.90;;;;;;;4.06;75.64;101288.79;126892;1284;107360;-79
2022/10/20 00:08:45;;;;;;;7.60;5.60;;;;;;;4.04;75.70;101288.39;126888;1286;107507;-78
2022/10/20 00:11:50;;;;;;;11.00;5.70;;;;;;;4.03;75.60;101293.75;126912;1279;107588;-80
2022/10/20 00:14:55;;;;;;;9.40;6.00;;;;;;;4.00;75.74;101295.86;127079;1286;107448;-80
2022/10/20 00:18:01;;;;;;;9.90;5.90;;;;;;;3.95;75.89;101295.96;126988;1284;107344;-78
2022/10/20 00:21:09;;;;;;;7.90;5.00;;;;;;;3.89;75.96;101299.41;127042;1284;107445;-80
2022/10/20 00:24:15;;;;;;;9.00;5.60;;;;;;;3.91;76.33;101300.88;127024;1278;107505;-79
2022/10/20 00:27:20;;;;;;;9.10;5.80;;;;;;;3.97;76.42;101299.20;127130;1286;107377;-79
2022/10/20 00:30:26;;;;;;;8.80;5.40;;;;;;;4.02;76.25;101296.09;127078;1279;107512;-79
2022/10/20 00:33:32;;;;;;;11.00;6.10;;;;;;;4.04;76.11;101293.52;127226;1280;109257;-80
2022/10/20 00:36:38;;;;;;;10.90;6.30;;;;;;;4.04;76.44;101291.73;126973;1291;107583;-79
2022/10/20 00:39:44;;;;;;;9.90;5.90;;;;;;;4.01;76.33;101292.98;126916;1286;107475;-79
2022/10/20 00:42:49;;;;;;;11.90;7.90;;;;;;;3.97;76.61;101293.73;127049;1288;107720;-80
2022/10/20 00:45:57;;;;;;;11.60;8.20;;;;;;;3.97;76.83;101292.34;127123;1279;107518;-79
2022/10/20 00:49:12;;;;;;;9.90;6.40;;;;;;;3.96;76.80;101292.18;126786;1286;107622;-78
2022/10/20 00:52:20;;;;;;;9.80;5.90;;;;;;;3.94;76.72;101291.41;126919;1285;106969;-79
2022/10/20 00:55:29;;;;;;;9.20;5.70;;;;;;;3.91;76.87;101292.44;127079;1279;105994;-80
2022/10/20 00:58:35;;;;;;;9.70;5.90;;;;;;;3.93;77.16;101288.48;127135;1279;106567;-79
2022/10/20 01:01:42;;;;;;;10.50;7.40;;;;;;;3.96;77.07;101288.86;127224;1286;107501;-80
2022/10/20 01:04:49;;;;;;;12.00;7.00;;;;;;;4.00;76.84;101289.86;126986;1279;107384;-80
2022/10/20 01:07:54;;;;;;;10.70;6.50;;;;;;;4.01;76.64;101291.23;127058;1280;107402;-80
2022/10/20 01:11:08;;;;;;;9.90;5.90;;;;;;;3.96;76.93;101290.60;127021;1286;107535;-80
2022/10/20 01:14:35;;;;;;;12.30;6.60;;;;;;;3.93;76.92;101294.29;127026;1285;106040;-81
2022/10/20 01:17:52;;;;;;;11.00;7.40;;;;;;;3.90;76.99;101294.44;126847;1296;107625;-77
2022/10/20 01:21:21;;;;;;;11.90;7.80;;;;;;;3.90;77.00;101294.11;126838;1278;106607;-77
2022/10/20 01:24:47;;;;;;;9.60;6.10;;;;;;;3.89;77.00;101299.09;126829;1289;107497;-77
2022/10/20 01:28:07;;;;;;;10.30;5.80;;;;;;;3.84;77.23;101289.83;126904;1286;107228;-78
2022/10/20 01:31:22;;;;;;;9.20;5.70;;;;;;;3.81;77.21;101281.56;126769;1286;107541;-78
2022/10/20 01:34:37;;;;;;;9.50;4.90;;;;;;;3.79;76.98;101278.89;126824;1291;107353;-78
2022/10/20 01:37:49;;;;;;;8.60;5.70;;;;;;;3.82;77.34;101273.59;126772;1292;107519;-78
2022/10/20 01:41:00;;;;;;;14.10;7.90;;;;;;;3.86;77.12;101276.71;126899;1286;105965;-78
2022/10/20 01:44:09;;;;;;;10.10;6.00;;;;;;;3.87;77.08;101278.40;126904;1286;105411;-78
2022/10/20 01:47:16;;;;;;;9.10;4.90;;;;;;;3.87;76.94;101281.95;126888;1285;107406;-78
2022/10/20 01:50:23;;;;;;;11.70;6.80;;;;;;;3.84;76.71;101287.94;126851;1286;107501;-78
2022/10/20 01:53:29;;;;;;;13.10;8.40;;;;;;;3.80;76.96;101285.31;126928;1278;107486;-78
2022/10/20 01:56:42;;;;;;;14.80;10.90;;;;;;;3.78;76.76;101282.48;126896;1280;107217;-80
2022/10/20 02:00:01;;;;;;;14.90;8.40;;;;;;;3.75;77.01;101281.20;126646;1289;107368;-78
2022/10/20 02:03:23;;;;;;;11.50;6.90;;;;;;;3.72;77.05;101278.89;126896;1278;107739;-78
2022/10/20 02:06:41;;;;;;;13.00;7.80;;;;;;;3.68;76.92;101275.96;126844;1280;106759;-78
2022/10/20 02:09:52;;;;;;;12.70;6.70;;;;;;;3.63;77.08;101279.23;126848;1286;106389;-78
2022/10/20 02:13:01;;;;;;;8.10;5.20;;;;;;;3.57;76.68;101276.38;126928;1286;107544;-77
2022/10/20 02:16:13;;;;;;;7.00;4.50;;;;;;;3.56;77.13;101270.08;126812;1285;105578;-78
2022/10/20 02:19:22;;;;;;;6.20;4.70;;;;;;;3.57;76.92;101265.66;126894;1280;107357;-78
2022/10/20 02:22:28;;;;;;;7.90;5.10;;;;;;;3.59;76.63;101263.95;126953;1286;105809;-78
2022/10/20 02:25:34;;;;;;;10.10;5.00;;;;;;;3.58;76.35;101263.13;126935;1285;107511;-79
2022/10/20 02:28:44;;;;;;;8.60;4.60;;;;;;;3.54;76.37;101263.33;126802;1292;108065;-79
2022/10/20 02:31:50;;;;;;;8.30;4.70;;;;;;;3.50;76.25;101266.21;126821;1280;105940;-78
2022/10/20 02:34:56;;;;;;;9.10;5.80;;;;;;;3.43;76.07;101267.60;126789;1286;107307;-78
2022/10/20 02:38:02;;;;;;;10.80;5.50;;;;;;;3.37;75.96;101271.66;126854;1279;107653;-78
2022/10/20 02:41:07;;;;;;;10.70;5.50;;;;;;;3.29;76.08;101268.15;126828;1294;107298;-79
2022/10/20 02:44:12;;;;;;;11.00;5.20;;;;;;;3.26;76.26;101270.83;126958;1292;107317;-78
2022/10/20 02:47:19;;;;;;;10.10;5.80;;;;;;;3.23;76.19;101274.16;126994;1279;107374;-76
2022/10/20 02:50:26;;;;;;;9.70;5.90;;;;;;;3.20;76.35;101269.38;127000;1284;107438;-78
2022/10/20 02:53:32;;;;;;;9.60;6.00;;;;;;;3.14;76.29;101272.81;127070;1285;107231;-80
2022/10/20 02:56:37;;;;;;;11.80;7.50;;;;;;;3.10;76.50;101280.77;127227;1285;107542;-83
2022/10/20 02:59:42;;;;;;;13.40;7.10;;;;;;;3.04;76.71;101281.43;127026;1286;107458;-79
2022/10/20 03:02:48;;;;;;;10.00;5.40;;;;;;;3.01;76.65;101284.76;127074;1284;107338;-79
2022/10/20 03:05:53;;;;;;;8.10;4.20;;;;;;;3.02;76.55;101283.81;127151;1292;107218;-79
2022/10/20 03:08:59;;;;;;;7.90;4.20;;;;;;;3.05;76.60;101284.39;127179;1283;106477;-79
2022/10/20 03:12:05;;;;;;;8.00;4.70;;;;;;;3.06;76.45;101287.14;127114;1286;107607;-79
2022/10/20 03:15:11;;;;;;;9.70;5.00;;;;;;;3.05;76.25;101285.79;127060;1276;107528;-79
2022/10/20 03:18:17;;;;;;;9.20;4.80;;;;;;;3.05;76.02;101283.15;127053;1279;107565;-79
2022/10/20 03:21:22;;;;;;;8.90;5.00;;;;;;;3.04;76.18;101282.66;127031;1284;106650;-78
2022/10/20 03:24:27;;;;;;;7.80;5.00;;;;;;;3.03;76.07;101281.65;126953;1280;106516;-78
2022/10/20 03:27:33;;;;;;;9.40;4.90;;;;;;;2.98;75.98;101285.80;126868;1286;107493;-78
2022/10/20 03:30:38;;;;;;;8.00;5.00;;;;;;;2.93;75.92;101280.05;126929;1284;105975;-78
2022/10/20 03:33:44;;;;;;;9.30;5.00;;;;;;;2.88;75.96;101278.91;127078;1290;107356;-78
2022/10/20 03:36:50;;;;;;;7.60;4.70;;;;;;;2.84;76.08;101284.38;127331;1296;106661;-78
2022/10/20 03:39:55;;;;;;;8.80;4.70;;;;;;;2.81;75.94;101287.73;129031;1285;107541;-78
2022/10/20 03:43:00;;;;;;;8.70;4.60;;;;;;;2.73;75.69;101288.98;127029;1285;105475;-77
2022/10/20 03:46:08;;;;;;;8.00;4.70;;;;;;;2.68;75.88;101289.60;127266;1284;107336;-80
2022/10/20 03:49:15;;;;;;;8.40;4.60;;;;;;;2.64;75.89;101287.35;126827;1284;108277;-77
2022/10/20 03:52:20;;;;;;;7.80;4.60;;;;;;;2.60;75.81;101288.61;126902;1286;108247;-77
2022/10/20 03:55:26;;;;;;;7.80;4.50;;;;;;;2.56;75.85;101291.23;126917;1285;107327;-79
2022/10/20 03:58:31;;;;;;;6.10;3.90;;;;;;;2.55;75.75;101296.36;126894;1291;107482;-78
2022/10/20 04:01:36;;;;;;;6.00;4.00;;;;;;;2.57;75.68;101296.83;126981;1284;107513;-78
2022/10/20 04:04:42;;;;;;;7.50;4.20;;;;;;;2.59;75.94;101301.48;126967;1284;107542;-79
2022/10/20 04:07:48;;;;;;;7.30;4.30;;;;;;;2.59;75.57;101299.71;127183;1286;107338;-79
2022/10/20 04:10:53;;;;;;;8.40;4.60;;;;;;;2.55;75.67;101297.42;127302;1284;107291;-78
2022/10/20 04:13:59;;;;;;;7.10;4.20;;;;;;;2.52;75.58;101298.65;126967;1285;106593;-78
2022/10/20 04:17:05;;;;;;;7.30;4.40;;;;;;;2.49;75.84;101295.08;127213;1285;107496;-75
2022/10/20 04:20:11;;;;;;;8.70;4.40;;;;;;;2.49;75.48;101305.13;127171;1283;107565;-74
2022/10/20 04:23:16;;;;;;;6.70;4.10;;;;;;;2.47;75.65;101306.64;127224;1286;107066;-74
2022/10/20 04:26:22;;;;;;;8.30;4.50;;;;;;;2.42;75.54;101300.38;127322;1279;107510;-74
2022/10/20 04:29:27;;;;;;;8.10;4.50;;;;;;;2.37;75.52;101300.27;126818;1280;107366;-74
2022/10/20 04:32:32;;;;;;;8.60;4.90;;;;;;;2.33;75.59;101303.06;126916;1280;107532;-74
2022/10/20 04:35:38;;;;;;;10.10;4.40;;;;;;;2.31;75.64;101299.67;126920;1286;107557;-75
2022/10/20 04:38:43;;;;;;;8.10;4.30;;;;;;;2.26;75.56;101297.42;126927;1286;107293;-74
2022/10/20 04:41:49;;;;;;;7.90;4.60;;;;;;;2.22;75.74;101294.47;126980;1285;107255;-74
2022/10/20 04:44:54;;;;;;;8.30;4.90;;;;;;;2.20;75.64;101291.63;127168;1285;107556;-74
2022/10/20 04:48:01;;;;;;;15.50;6.30;;;;;;;2.17;75.73;101300.02;127043;1285;107489;-73
2022/10/20 04:51:08;;;;;;;7.40;4.50;;;;;;;2.18;75.80;101301.88;126860;1279;107391;-72
2022/10/20 04:54:14;;;;;;;7.20;4.60;;;;;;;2.24;75.52;101301.94;127013;1286;107276;-72
2022/10/20 04:57:19;;;;;;;8.10;4.60;;;;;;;2.25;75.62;101302.75;126878;1279;107360;-72
2022/10/20 05:00:25;;;;;;;8.70;4.70;;;;;;;2.24;75.40;101306.34;126962;1285;107504;-72
2022/10/20 05:03:31;;;;;;;8.60;4.60;;;;;;;2.24;75.33;101303.70;126865;1286;107484;-72
2022/10/20 05:06:36;;;;;;;8.90;4.40;;;;;;;2.21;75.34;101302.59;126948;1286;107307;-73
2022/10/20 05:09:41;;;;;;;6.60;4.50;;;;;;;2.20;75.48;101306.54;126916;1278;106673;-73
2022/10/20 05:12:47;;;;;;;8.50;4.70;;;;;;;2.19;75.28;101307.99;126840;1296;107636;-72
2022/10/20 05:15:54;;;;;;;6.60;4.40;;;;;;;2.15;75.39;101303.23;126831;1280;107372;-71
2022/10/20 05:19:00;;;;;;;9.20;5.00;;;;;;;2.14;75.40;101302.77;128817;1279;107506;-72
2022/10/20 05:22:05;;;;;;;7.10;4.60;;;;;;;2.11;75.41;101304.64;126824;1280;107496;-72
2022/10/20 05:25:11;;;;;;;8.40;4.90;;;;;;;2.08;75.38;101305.51;127014;1275;107682;-73
2022/10/20 05:28:16;;;;;;;7.10;4.60;;;;;;;2.07;75.43;101307.66;126883;1289;107180;-72
2022/10/20 05:31:23;;;;;;;10.70;5.40;;;;;;;2.08;75.54;101306.39;126955;1279;107530;-72
2022/10/20 05:34:29;;;;;;;9.40;6.00;;;;;;;2.14;75.56;101311.18;126966;1284;107362;-72
2022/10/20 05:37:34;;;;;;;11.00;5.80;;;;;;;2.14;75.30;101313.27;126962;1284;107515;-72
2022/10/20 05:40:39;;;;;;;14.10;5.60;;;;;;;2.12;75.61;101314.81;126923;1286;106423;-73
2022/10/20 05:43:49;;;;;;;10.30;4.70;;;;;;;2.11;75.31;101317.98;127147;1279;107302;-73
2022/10/20 05:46:55;;;;;;;7.50;3.60;;;;;;;2.13;75.41;101320.55;128284;1279;107839;-72
2022/10/20 05:50:00;;;;;;;9.50;5.10;;;;;;;2.17;75.30;101322.27;127151;1279;107369;-72
2022/10/20 05:53:05;;;;;;;11.80;6.50;;;;;;;2.25;75.23;101329.27;126920;1278;105467;-72
2022/10/20 05:56:13;;;;;;;11.10;5.80;;;;;;;2.32;75.25;101334.51;126972;1288;107350;-73
2022/10/20 05:59:18;;;;;;;8.70;6.20;;;;;;;2.36;75.49;101336.80;126895;1296;107561;-72
2022/10/20 06:02:24;;;;;;;11.80;6.40;;;;;;;2.41;75.29;101338.87;126825;1285;107360;-72
2022/10/20 06:05:29;;;;;;;12.70;7.90;;;;;;;2.49;75.52;101337.58;126943;1280;107449;-71
2022/10/20 06:08:35;;;;;;;14.50;9.00;;;;;;;2.56;75.48;101342.54;127034;1278;107414;-72
2022/10/20 06:11:41;;;;;;;15.90;10.80;;;;;;;2.58;75.53;101344.21;126925;1278;107534;-73
2022/10/20 06:14:46;;;;;;;16.10;11.10;;;;;;;2.62;75.63;101350.51;127049;1296;107206;-73
2022/10/20 06:17:51;;;;;;;15.70;11.00;;;;;;;2.68;75.57;101355.11;126998;1280;108023;-72
2022/10/20 06:21:02;;;;;;;14.30;9.90;;;;;;;2.72;75.64;101356.70;126895;1278;107403;-72
2022/10/20 06:24:09;;;;;;;14.70;10.10;;;;;;;2.73;75.60;101364.20;126924;1286;107581;-72
2022/10/20 06:27:14;;;;;;;15.20;10.00;;;;;;;2.77;75.69;101365.41;126955;1285;106677;-72
2022/10/20 06:30:20;;;;;;;16.70;9.60;;;;;;;2.81;75.83;101368.54;126911;1278;107260;-73
2022/10/20 06:33:25;;;;;;;20.60;9.10;;;;;;;2.86;75.84;101366.71;126893;1286;107428;-72
2022/10/20 06:36:34;;;;;;;18.00;12.40;;;;;;;2.94;75.77;101373.52;126919;1285;107357;-71
2022/10/20 06:39:39;;;;;;;13.10;7.80;;;;;;;2.91;75.51;101373.85;126883;1286;107364;-72
2022/10/20 06:42:47;;;;;;;9.90;6.10;;;;;;;2.99;76.23;101374.34;126863;1276;107529;-70
2022/10/20 06:46:00;;;;;;;11.20;6.50;;;;;;;3.08;75.81;101372.31;126769;1278;107535;-71
2022/10/20 06:49:07;;;;;;;11.60;6.60;;;;;;;3.05;76.15;101372.98;126967;1280;108472;-73
2022/10/20 06:52:13;;;;;;;11.40;6.80;;;;;;;3.17;76.37;101375.70;126980;1279;107302;-73
2022/10/20 06:55:18;;;;;;;11.00;7.10;;;;;;;3.29;76.44;101376.16;126943;1275;106649;-73
2022/10/20 06:58:23;;;;;;;11.80;7.30;;;;;;;3.30;76.33;101379.07;126746;1272;107422;-70
2022/10/20 07:01:31;;;;;;;13.40;8.50;;;;;;;3.24;76.19;101379.91;126905;1278;107542;-73
2022/10/20 07:04:37;;;;;;;32.10;18.80;;;;;;;3.26;76.58;101382.84;127861;1280;107339;-74
2022/10/20 07:07:42;;;;;;;18.70;12.30;;;;;;;3.28;77.02;101381.83;129192;1279;107204;-73
2022/10/20 07:10:47;;;;;;;20.50;11.20;;;;;;;3.39;77.85;101381.11;126928;1279;106801;-73
2022/10/20 07:13:53;;;;;;;14.30;7.60;;;;;;;3.59;78.10;101385.02;126974;1284;107676;-73
2022/10/20 07:16:58;;;;;;;12.90;8.50;;;;;;;3.80;78.46;101383.01;126971;1279;107350;-72
2022/10/20 07:20:04;;;;;;;16.30;9.00;;;;;;;4.04;78.43;101378.93;126752;1286;107333;-72
2022/10/20 07:23:10;;;;;;;15.60;8.70;;;;;;;4.25;78.46;101380.58;126964;1279;107525;-72
2022/10/20 07:26:18;;;;;;;15.30;10.50;;;;;;;4.42;78.70;101376.13;126916;1279;108017;-72
2022/10/20 07:29:24;;;;;;;14.00;9.50;;;;;;;4.57;78.89;101379.30;127019;1286;106731;-73
2022/10/20 07:32:30;;;;;;;36.00;27.00;;;;;;;4.70;78.94;101379.29;127042;1294;107341;-72
2022/10/20 07:35:36;;;;;;;28.10;17.60;;;;;;;4.81;78.89;101376.73;126870;1286;108099;-73
2022/10/20 07:38:42;;;;;;;20.70;13.10;;;;;;;4.94;79.16;101380.05;126825;1279;107586;-73
2022/10/20 07:41:47;;;;;;;13.70;8.90;;;;;;;5.07;79.54;101382.98;127159;1279;107287;-72
2022/10/20 07:44:52;;;;;;;15.80;9.50;;;;;;;5.22;79.34;101388.25;127152;1278;107601;-73
2022/10/20 07:47:58;;;;;;;15.90;10.00;;;;;;;5.39;79.56;101393.44;127186;1279;108090;-72
2022/10/20 07:51:24;;;;;;;14.70;9.20;;;;;;;5.54;79.46;101394.33;127163;1278;106108;-73
2022/10/20 07:54:30;;;;;;;13.00;8.60;;;;;;;5.67;79.79;101397.77;127142;1279;107731;-73
2022/10/20 07:57:36;;;;;;;51.90;32.90;;;;;;;5.79;79.77;101399.34;126934;1279;107306;-73
2022/10/20 08:00:41;;;;;;;70.20;42.40;;;;;;;5.90;79.77;101403.23;126874;1271;107554;-74
2022/10/20 08:03:46;;;;;;;30.00;19.50;;;;;;;5.99;79.84;101401.66;126998;1279;107530;-72
2022/10/20 08:06:51;;;;;;;43.10;27.70;;;;;;;6.08;80.34;101400.39;126814;1286;107576;-73
2022/10/20 08:09:57;;;;;;;15.10;8.80;;;;;;;6.20;81.12;101402.48;126834;1279;107295;-73
2022/10/20 08:13:02;;;;;;;21.10;12.60;;;;;;;6.27;80.62;101399.20;126874;1286;109249;-73
2022/10/20 08:16:09;;;;;;;18.20;9.70;;;;;;;6.38;80.17;101400.11;126897;1286;106414;-73
2022/10/20 08:19:15;;;;;;;14.00;8.90;;;;;;;6.51;80.39;101401.55;126946;1279;107509;-73
2022/10/20 08:22:20;;;;;;;13.40;7.60;;;;;;;6.63;80.26;101398.30;126980;1278;106689;-73
2022/10/20 08:25:26;;;;;;;14.50;8.40;;;;;;;6.73;80.23;101397.55;126967;1286;107379;-72
2022/10/20 08:28:31;;;;;;;14.00;8.80;;;;;;;6.80;80.37;101396.15;127055;1279;107484;-72
2022/10/20 08:31:37;;;;;;;14.70;8.30;;;;;;;6.87;80.58;101397.84;126784;1279;107527;-74
2022/10/20 08:34:43;;;;;;;14.20;7.70;;;;;;;6.96;80.25;101392.11;126979;1278;107506;-73
2022/10/20 08:37:48;;;;;;;15.50;9.30;;;;;;;7.05;80.19;101394.65;126951;1279;107821;-72
2022/10/20 08:40:54;;;;;;;11.20;6.50;;;;;;;7.17;80.51;101392.98;126837;1280;107574;-72
2022/10/20 08:44:01;;;;;;;11.60;7.10;;;;;;;7.25;80.40;101398.84;126968;1279;107527;-72
2022/10/20 08:47:20;;;;;;;8.40;5.30;;;;;;;7.32;80.30;101399.64;126857;1278;107554;-72
2022/10/20 08:50:29;;;;;;;7.80;5.10;;;;;;;7.35;79.88;101399.74;126878;1278;106563;-72
2022/10/20 08:53:39;;;;;;;9.80;5.90;;;;;;;7.42;79.99;101399.79;126870;1279;107377;-72
2022/10/20 08:56:46;;;;;;;8.30;4.60;;;;;;;7.52;79.96;101394.21;126872;1279;107523;-72
2022/10/20 08:59:54;;;;;;;6.50;4.10;;;;;;;7.58;79.96;101393.77;127005;1279;107207;-73
2022/10/20 09:03:10;;;;;;;5.60;3.20;;;;;;;7.68;79.77;101393.98;126926;1279;109339;-73
2022/10/20 09:06:17;;;;;;;3.60;1.60;;;;;;;7.84;79.67;101390.90;126879;1286;107565;-72
2022/10/20 09:09:24;;;;;;;4.30;2.80;;;;;;;7.99;79.21;101394.31;126831;1279;107565;-71
2022/10/20 09:12:31;;;;;;;4.70;2.80;;;;;;;8.12;79.17;101389.64;126935;1278;107246;-72
2022/10/20 09:15:37;;;;;;;5.10;3.30;;;;;;;8.21;79.06;101386.98;126887;1284;107600;-72
2022/10/20 09:18:43;;;;;;;5.90;3.60;;;;;;;8.34;79.02;101389.86;127121;1280;107339;-73
2022/10/20 09:21:52;;;;;;;4.10;2.70;;;;;;;8.47;78.97;101391.21;126871;1279;107609;-74
2022/10/20 09:24:58;;;;;;;3.40;2.20;;;;;;;8.61;78.84;101393.42;126909;1287;107272;-73
2022/10/20 09:28:04;;;;;;;3.20;2.10;;;;;;;8.71;78.34;101385.23;126900;1278;106517;-73
2022/10/20 09:31:23;;;;;;;3.80;2.70;;;;;;;8.77;78.32;101386.02;126851;1285;107574;-73
2022/10/20 09:34:30;;;;;;;4.10;2.80;;;;;;;8.83;78.34;101384.55;126912;1286;107261;-71
2022/10/20 09:37:37;;;;;;;4.60;2.70;;;;;;;8.83;78.51;101385.21;126940;1278;106373;-71
2022/10/20 09:40:54;;;;;;;9.80;5.90;;;;;;;8.84;78.38;101386.59;126818;1279;107448;-72
2022/10/20 09:44:04;;;;;;;5.70;3.30;;;;;;;8.85;78.58;101388.43;126836;1286;106790;-71
2022/10/20 09:47:14;;;;;;;4.40;2.50;;;;;;;8.88;78.35;101385.55;126944;1294;106736;-72
2022/10/20 09:50:26;;;;;;;10.80;6.40;;;;;;;8.98;78.36;101388.02;126898;1296;107360;-71
2022/10/20 09:53:36;;;;;;;67.50;49.20;;;;;;;9.11;78.37;101385.30;126923;1294;106599;-71
2022/10/20 09:56:45;;;;;;;213.70;116.40;;;;;;;9.25;78.12;101386.34;126843;1286;107365;-73
2022/10/20 09:59:53;;;;;;;43.90;23.20;;;;;;;9.36;77.92;101383.92;127017;1272;107591;-72
2022/10/20 10:03:20;;;;;;;85.20;45.70;;;;;;;9.40;77.60;101377.89;127241;1278;107447;-72
2022/10/20 10:06:32;;;;;;;77.70;44.20;;;;;;;9.41;77.38;101367.88;127098;1279;107423;-72
2022/10/20 10:09:38;;;;;;;33.60;20.40;;;;;;;9.41;77.06;101365.05;127067;1272;107322;-72
2022/10/20 10:12:53;;;;;;;17.60;11.70;;;;;;;9.38;77.16;101358.73;126880;1286;107597;-72
2022/10/20 10:16:05;;;;;;;9.70;6.70;;;;;;;9.37;77.51;101353.99;127028;1279;108066;-71
2022/10/20 10:19:19;;;;;;;7.20;4.50;;;;;;;9.39;77.30;101351.39;126891;1278;107984;-71
2022/10/20 10:22:25;;;;;;;6.00;3.00;;;;;;;9.50;77.92;101359.37;126935;1286;108480;-71
2022/10/20 10:25:30;;;;;;;4.20;2.80;;;;;;;9.59;77.46;101356.73;126940;1286;108051;-71
2022/10/20 10:28:38;;;;;;;2.80;2.00;;;;;;;9.59;77.43;101358.14;126942;1278;107565;-72
2022/10/20 10:31:51;;;;;;;3.00;1.80;;;;;;;9.59;77.09;101353.59;126858;1278;107926;-72
2022/10/20 10:35:16;;;;;;;4.30;2.20;;;;;;;9.57;77.04;101351.75;126892;1279;106486;-71
2022/10/20 10:38:22;;;;;;;3.40;1.70;;;;;;;9.56;77.08;101346.45;126796;1272;181022;-71
2022/10/20 10:41:41;;;;;;;4.70;1.90;;;;;;;9.60;77.34;101342.98;126944;1272;107529;-71
2022/10/20 10:44:57;;;;;;;2.60;2.10;;;;;;;9.64;77.58;101337.91;126925;1286;107505;-71
2022/10/20 10:48:24;;;;;;;2.40;1.80;;;;;;;9.64;77.54;101338.77;126964;1279;107065;-71
2022/10/20 10:51:42;;;;;;;3.90;2.00;;;;;;;9.59;77.51;101335.56;126992;1279;107517;-71
2022/10/20 10:55:10;;;;;;;3.70;2.10;;;;;;;9.56;77.91;101332.83;126898;1279;108061;-71
2022/10/20 10:58:27;;;;;;;2.90;2.00;;;;;;;9.54;77.91;101328.38;126892;1272;107396;-71
2022/10/20 11:01:52;;;;;;;3.60;1.90;;;;;;;9.54;77.91;101323.02;126912;1279;107547;-71
2022/10/20 11:05:24;;;;;;;4.10;2.30;;;;;;;9.58;77.89;101322.75;126811;1272;106006;-71
2022/10/20 11:08:43;;;;;;;4.30;2.90;;;;;;;9.63;77.73;101311.12;127003;1278;106035;-73
2022/10/20 11:11:58;;;;;;;6.90;3.40;;;;;;;9.72;77.36;101309.94;127045;1271;107408;-71
2022/10/20 11:15:23;;;;;;;5.70;3.20;;;;;;;9.86;77.58;101306.84;126901;1278;107292;-72
2022/10/20 11:18:54;;;;;;;7.10;4.70;;;;;;;10.15;76.70;101298.61;126904;1285;107316;-72
2022/10/20 11:22:13;;;;;;;4.10;2.90;;;;;;;10.52;76.07;101289.78;126884;1279;107302;-72
2022/10/20 11:25:33;;;;;;;5.10;2.50;;;;;;;10.88;75.64;101283.02;126937;1278;107533;-72
2022/10/20 11:28:44;;;;;;;4.80;2.60;;;;;;;11.08;74.87;101277.59;126892;1286;107512;-73
2022/10/20 11:31:56;;;;;;;6.00;3.20;;;;;;;11.19;75.04;101273.77;126944;1271;107261;-72
2022/10/20 11:35:12;;;;;;;4.10;2.40;;;;;;;11.39;74.87;101268.36;126995;1286;107406;-72
2022/10/20 11:38:23;;;;;;;3.20;1.60;;;;;;;11.56;73.93;101264.68;126885;1286;107388;-71
2022/10/20 11:41:38;;;;;;;2.80;1.70;;;;;;;11.60;73.24;101262.08;126883;1279;107381;-71
2022/10/20 11:44:45;;;;;;;2.90;1.60;;;;;;;11.60;73.12;101258.64;126820;1293;107295;-72
2022/10/20 11:47:56;;;;;;;2.70;2.10;;;;;;;11.60;73.15;101256.19;126862;1295;107386;-71
2022/10/20 11:51:23;;;;;;;3.40;2.10;;;;;;;11.60;73.20;101255.45;126855;1279;107349;-71
2022/10/20 11:54:43;;;;;;;3.00;2.10;;;;;;;11.61;72.69;101255.75;126846;1278;107438;-71
2022/10/20 11:58:04;;;;;;;3.40;2.40;;;;;;;11.57;72.73;101252.64;127273;1286;107196;-75
2022/10/20 12:01:30;;;;;;;4.10;2.40;;;;;;;11.54;72.56;101253.64;126967;1279;107484;-74
2022/10/20 12:04:49;;;;;;;3.00;2.00;;;;;;;11.52;72.33;101246.94;126970;1279;107641;-73
2022/10/20 12:08:28;;;;;;;4.10;2.10;;;;;;;11.43;72.34;101245.04;126785;1279;106631;-75
2022/10/20 12:11:42;;;;;;;2.30;1.70;;;;;;;11.32;72.29;101245.27;126869;1279;106354;-74
2022/10/20 12:14:55;;;;;;;2.30;1.50;;;;;;;11.27;72.29;101244.43;126916;1278;107528;-75
2022/10/20 12:18:15;;;;;;;6.20;4.80;;;;;;;11.32;72.23;101238.66;127069;1278;105634;-75
2022/10/20 12:21:56;;;;;;;5.40;3.70;;;;;;;11.32;72.00;101234.02;127231;1278;107487;-73
2022/10/20 12:25:24;;;;;;;2.50;1.70;;;;;;;11.26;71.38;101232.41;127028;1278;107510;-73
2022/10/20 12:28:42;;;;;;;2.20;1.60;;;;;;;11.16;71.35;101237.54;126898;1272;106065;-73
2022/10/20 12:32:23;;;;;;;3.60;2.10;;;;;;;11.08;71.29;101235.37;126884;1278;107470;-73
2022/10/20 12:35:45;;;;;;;2.80;1.50;;;;;;;10.96;71.10;101230.91;127268;1285;107528;-74
2022/10/20 12:38:53;;;;;;;2.10;1.30;;;;;;;10.89;71.26;101225.84;127024;1272;105746;-74
2022/10/20 12:42:01;;;;;;;4.20;2.50;;;;;;;10.86;70.84;101223.37;126877;1286;106677;-76
2022/10/20 12:45:28;;;;;;;4.10;2.60;;;;;;;10.85;70.66;101225.11;126997;1272;107588;-75
2022/10/20 12:48:35;;;;;;;2.20;1.30;;;;;;;10.89;70.39;101225.31;126936;1281;107420;-74
2022/10/20 12:51:50;;;;;;;1.20;0.90;;;;;;;10.94;70.06;101223.94;127005;1270;107546;-72
2022/10/20 12:55:04;;;;;;;8.40;7.60;;;;;;;10.95;69.96;101220.66;126992;1280;107497;-73
2022/10/20 12:58:28;;;;;;;5.10;4.50;;;;;;;10.90;69.68;101220.55;127055;1279;107400;-72
2022/10/20 13:02:12;;;;;;;4.60;2.30;;;;;;;10.84;69.30;101218.23;127151;1279;107369;-71
2022/10/20 13:05:46;;;;;;;3.80;2.50;;;;;;;10.84;69.61;101216.60;126830;1275;107485;-71
2022/10/20 13:09:31;;;;;;;8.60;6.50;;;;;;;10.88;69.47;101216.43;126957;1278;105403;-71
2022/10/20 13:12:40;;;;;;;16.70;15.10;;;;;;;10.98;69.15;101213.30;126736;1272;107363;-71
2022/10/20 13:15:50;;;;;;;8.00;5.70;;;;;;;11.10;68.79;101211.70;126967;1279;107593;-71
2022/10/20 13:18:57;;;;;;;6.10;4.30;;;;;;;11.15;68.71;101200.73;126907;1279;107400;-72
2022/10/20 13:22:31;;;;;;;5.10;3.30;;;;;;;11.19;68.57;101199.34;126890;1278;107488;-71
2022/10/20 13:25:43;;;;;;;9.70;6.50;;;;;;;11.18;68.28;101201.05;126968;1272;105436;-71
2022/10/20 13:28:51;;;;;;;9.80;7.60;;;;;;;11.12;68.27;101198.73;126787;1286;107436;-71
2022/10/20 13:32:12;;;;;;;3.80;2.00;;;;;;;11.07;67.73;101194.35;126838;1295;107265;-72
2022/10/20 13:35:27;;;;;;;3.00;2.30;;;;;;;11.13;67.79;101191.90;126891;1279;107420;-71
2022/10/20 13:38:40;;;;;;;3.10;2.10;;;;;;;11.22;67.83;101187.50;126839;1279;107526;-71
2022/10/20 13:41:55;;;;;;;3.40;2.60;;;;;;;11.29;67.52;101181.05;126901;1278;107366;-71
2022/10/20 13:45:08;;;;;;;2.80;2.10;;;;;;;11.33;67.28;101177.11;126999;1279;107254;-71
2022/10/20 13:48:29;;;;;;;4.70;4.20;;;;;;;11.36;67.09;101174.54;126902;1286;107528;-71
2022/10/20 13:51:42;;;;;;;13.10;10.10;;;;;;;11.38;66.85;101174.67;126854;1278;108395;-72
2022/10/20 13:54:51;;;;;;;25.00;12.30;;;;;;;11.37;66.77;101175.29;127140;1279;107487;-72
2022/10/20 13:57:59;;;;;;;13.80;7.70;;;;;;;11.32;66.74;101171.84;127001;1279;107365;-72
2022/10/20 14:01:07;;;;;;;11.20;7.40;;;;;;;11.26;66.42;101164.39;126894;1279;107385;-74
2022/10/20 14:04:26;;;;;;;9.80;6.80;;;;;;;11.16;66.82;101159.35;126982;1272;105888;-71
2022/10/20 14:07:39;;;;;;;18.30;11.50;;;;;;;11.00;66.69;101155.39;126939;1285;107496;-72
2022/10/20 14:10:51;;;;;;;34.80;21.70;;;;;;;10.82;66.58;101152.55;127138;1286;107542;-72
2022/10/20 14:13:59;;;;;;;30.30;21.10;;;;;;;10.61;66.38;101157.52;126999;1286;108674;-72
2022/10/20 14:17:07;;;;;;;17.30;11.70;;;;;;;10.43;66.75;101152.98;127006;1286;107409;-72
2022/10/20 14:20:21;;;;;;;36.30;21.70;;;;;;;10.28;66.75;101152.17;127018;1286;107353;-71
2022/10/20 14:23:29;;;;;;;14.00;9.70;;;;;;;10.16;66.83;101149.21;126924;1279;107579;-72
2022/10/20 14:26:36;;;;;;;30.90;21.30;;;;;;;10.06;66.88;101148.45;126928;1279;107272;-72
2022/10/20 14:29:42;;;;;;;20.30;15.30;;;;;;;9.94;67.27;101144.77;126944;1279;107589;-73